sensor_id;sensor_type;location;lat;lon;timestamp;temperature;humidity
27823;DHT22;29019;47.630;8.262;2022-11-12T00:01:42;17.10;50.80
27823;DHT22;29019;47.630;8.262;2022-11-12T00:05:43;17.10;50.80
27823;DHT22;29019;47.630;8.262;2022-11-12T00:09:43;17.10;50.80
27823;DHT22;29019;47.630;8.262;2022-11-12T00:13:43;17.10;50.80
27823;DHT22;29019;47.630;8.262;2022-11-12T00:17:44;17.10;50.80
27823;DHT22;29019;47.630;8.262;2022-11-12T00:21:44;17.10;50.80
27823;DHT22;29019;47.630;8.262;2022-11-12T00:25:45;17.10;50.80
27823;DHT22;29019;47.630;8.262;2022-11-12T00:29:45;17.10;50.80
27823;DHT22;29019;47.630;8.262;2022-11-12T00:33:46;17.10;50.80
27823;DHT22;29019;47.630;8.262;2022-11-12T00:37:46;17.10;50.80
27823;DHT22;29019;47.630;8.262;2022-11-12T00:41:47;17.10;50.80
27823;DHT22;29019;47.630;8.262;2022-11-12T00:45:47;17.10;50.80
27823;DHT22;29019;47.630;8.262;2022-11-12T00:49:47;17.10;50.80
27823;DHT22;29019;47.630;8.262;2022-11-12T00:53:48;17.10;50.80
27823;DHT22;29019;47.630;8.262;2022-11-12T00:57:49;17.10;50.80
27823;DHT22;29019;47.630;8.262;2022-11-12T01:01:49;17.10;50.80
27823;DHT22;29019;47.630;8.262;2022-11-12T01:05:50;17.10;50.80
27823;DHT22;29019;47.630;8.262;2022-11-12T01:09:50;17.10;50.80
27823;DHT22;29019;47.630;8.262;2022-11-12T01:13:58;17.10;50.80
27823;DHT22;29019;47.630;8.262;2022-11-12T01:17:59;17.10;50.80
27823;DHT22;29019;47.630;8.262;2022-11-12T01:21:59;17.10;50.80
27823;DHT22;29019;47.630;8.262;2022-11-12T01:26:06;17.10;50.80
27823;DHT22;29019;47.630;8.262;2022-11-12T01:30:07;17.10;50.80
27823;DHT22;29019;47.630;8.262;2022-11-12T01:34:07;17.00;50.70
27823;DHT22;29019;47.630;8.262;2022-11-12T01:38:08;17.10;50.80
27823;DHT22;29019;47.630;8.262;2022-11-12T01:42:08;17.10;50.80
27823;DHT22;29019;47.630;8.262;2022-11-12T01:46:12;17.00;50.70
27823;DHT22;29019;47.630;8.262;2022-11-12T01:50:23;17.00;50.70
27823;DHT22;29019;47.630;8.262;2022-11-12T01:54:26;17.00;50.70
27823;DHT22;29019;47.630;8.262;2022-11-12T01:58:27;17.00;50.80
27823;DHT22;29019;47.630;8.262;2022-11-12T02:02:29;17.10;50.80
27823;DHT22;29019;47.630;8.262;2022-11-12T02:06:29;17.00;50.70
27823;DHT22;29019;47.630;8.262;2022-11-12T02:10:30;17.00;50.70
27823;DHT22;29019;47.630;8.262;2022-11-12T02:14:31;17.00;50.70
27823;DHT22;29019;47.630;8.262;2022-11-12T02:18:32;17.00;50.70
27823;DHT22;29019;47.630;8.262;2022-11-12T02:22:32;17.00;50.70
27823;DHT22;29019;47.630;8.262;2022-11-12T02:26:33;17.00;50.70
27823;DHT22;29019;47.630;8.262;2022-11-12T02:30:36;17.00;50.70
27823;DHT22;29019;47.630;8.262;2022-11-12T02:34:37;17.00;50.70
27823;DHT22;29019;47.630;8.262;2022-11-12T02:38:38;17.00;50.70
27823;DHT22;29019;47.630;8.262;2022-11-12T02:42:39;17.00;50.70
27823;DHT22;29019;47.630;8.262;2022-11-12T02:46:39;17.00;50.70
27823;DHT22;29019;47.630;8.262;2022-11-12T02:50:40;17.00;50.70
27823;DHT22;29019;47.630;8.262;2022-11-12T02:54:40;16.90;50.60
27823;DHT22;29019;47.630;8.262;2022-11-12T02:58:40;17.00;51.10
27823;DHT22;29019;47.630;8.262;2022-11-12T03:02:41;16.90;51.50
27823;DHT22;29019;47.630;8.262;2022-11-12T03:06:41;17.00;51.40
27823;DHT22;29019;47.630;8.262;2022-11-12T03:10:42;16.80;49.30
27823;DHT22;29019;47.630;8.262;2022-11-12T03:14:42;16.60;48.40
27823;DHT22;29019;47.630;8.262;2022-11-12T03:18:43;16.30;48.40
27823;DHT22;29019;47.630;8.262;2022-11-12T03:22:53;16.10;48.40
27823;DHT22;29019;47.630;8.262;2022-11-12T03:26:54;16.00;48.60
27823;DHT22;29019;47.630;8.262;2022-11-12T03:30:57;15.90;48.30
27823;DHT22;29019;47.630;8.262;2022-11-12T03:34:58;15.80;49.00
27823;DHT22;29019;47.630;8.262;2022-11-12T03:38:59;15.90;50.30
27823;DHT22;29019;47.630;8.262;2022-11-12T03:42:59;16.20;50.60
27823;DHT22;29019;47.630;8.262;2022-11-12T03:47:00;16.30;50.80
27823;DHT22;29019;47.630;8.262;2022-11-12T03:51:00;16.50;50.40
27823;DHT22;29019;47.630;8.262;2022-11-12T03:55:01;16.60;50.30
27823;DHT22;29019;47.630;8.262;2022-11-12T03:59:01;16.70;50.20
27823;DHT22;29019;47.630;8.262;2022-11-12T04:03:01;16.80;50.20
27823;DHT22;29019;47.630;8.262;2022-11-12T04:07:02;16.80;50.10
27823;DHT22;29019;47.630;8.262;2022-11-12T04:11:21;16.80;50.10
27823;DHT22;29019;47.630;8.262;2022-11-12T04:15:21;16.80;50.30
27823;DHT22;29019;47.630;8.262;2022-11-12T04:19:22;16.90;50.20
27823;DHT22;29019;47.630;8.262;2022-11-12T04:23:41;16.90;50.10
27823;DHT22;29019;47.630;8.262;2022-11-12T04:27:41;17.00;50.00
27823;DHT22;29019;47.630;8.262;2022-11-12T04:31:42;17.00;50.40
27823;DHT22;29019;47.630;8.262;2022-11-12T04:35:42;17.10;50.50
27823;DHT22;29019;47.630;8.262;2022-11-12T04:39:42;17.10;50.70
27823;DHT22;29019;47.630;8.262;2022-11-12T04:43:43;17.20;50.70
27823;DHT22;29019;47.630;8.262;2022-11-12T04:48:02;17.20;50.90
27823;DHT22;29019;47.630;8.262;2022-11-12T04:52:02;17.30;50.90
27823;DHT22;29019;47.630;8.262;2022-11-12T04:56:06;17.40;50.90
27823;DHT22;29019;47.630;8.262;2022-11-12T05:00:06;17.40;50.90
27823;DHT22;29019;47.630;8.262;2022-11-12T05:04:07;17.40;50.90
27823;DHT22;29019;47.630;8.262;2022-11-12T05:08:07;17.50;51.20
27823;DHT22;29019;47.630;8.262;2022-11-12T05:12:08;17.60;50.90
27823;DHT22;29019;47.630;8.262;2022-11-12T05:16:09;17.60;51.00
27823;DHT22;29019;47.630;8.262;2022-11-12T05:20:09;17.70;51.10
27823;DHT22;29019;47.630;8.262;2022-11-12T05:24:10;17.70;51.00
27823;DHT22;29019;47.630;8.262;2022-11-12T05:28:11;17.80;51.00
27823;DHT22;29019;47.630;8.262;2022-11-12T05:32:12;17.80;51.10
27823;DHT22;29019;47.630;8.262;2022-11-12T05:36:13;17.80;51.00
27823;DHT22;29019;47.630;8.262;2022-11-12T05:40:13;17.90;50.90
27823;DHT22;29019;47.630;8.262;2022-11-12T05:44:14;17.90;51.00
27823;DHT22;29019;47.630;8.262;2022-11-12T05:48:14;18.00;51.00
27823;DHT22;29019;47.630;8.262;2022-11-12T05:52:15;18.00;50.90
27823;DHT22;29019;47.630;8.262;2022-11-12T05:56:15;18.00;50.90
27823;DHT22;29019;47.630;8.262;2022-11-12T06:00:15;18.10;50.90
27823;DHT22;29019;47.630;8.262;2022-11-12T06:04:16;18.10;50.80
27823;DHT22;29019;47.630;8.262;2022-11-12T06:08:17;18.10;50.80
27823;DHT22;29019;47.630;8.262;2022-11-12T06:12:17;18.20;50.90
27823;DHT22;29019;47.630;8.262;2022-11-12T06:16:18;18.20;51.10
27823;DHT22;29019;47.630;8.262;2022-11-12T06:20:18;18.30;51.00
27823;DHT22;29019;47.630;8.262;2022-11-12T06:24:19;18.30;50.90
27823;DHT22;29019;47.630;8.262;2022-11-12T06:28:20;18.30;51.10
27823;DHT22;29019;47.630;8.262;2022-11-12T06:32:20;18.40;51.20
27823;DHT22;29019;47.630;8.262;2022-11-12T06:36:20;18.40;51.20
27823;DHT22;29019;47.630;8.262;2022-11-12T06:40:21;18.40;51.00
27823;DHT22;29019;47.630;8.262;2022-11-12T06:44:21;18.50;51.30
27823;DHT22;29019;47.630;8.262;2022-11-12T06:48:22;18.50;50.80
27823;DHT22;29019;47.630;8.262;2022-11-12T06:52:22;18.50;50.90
27823;DHT22;29019;47.630;8.262;2022-11-12T06:56:23;18.60;51.20
27823;DHT22;29019;47.630;8.262;2022-11-12T07:00:23;18.60;50.90
27823;DHT22;29019;47.630;8.262;2022-11-12T07:04:23;18.60;51.00
27823;DHT22;29019;47.630;8.262;2022-11-12T07:08:24;18.60;50.90
27823;DHT22;29019;47.630;8.262;2022-11-12T07:12:24;18.70;51.00
27823;DHT22;29019;47.630;8.262;2022-11-12T07:16:25;18.70;50.80
27823;DHT22;29019;47.630;8.262;2022-11-12T07:20:25;18.70;50.70
27823;DHT22;29019;47.630;8.262;2022-11-12T07:24:26;18.80;51.00
27823;DHT22;29019;47.630;8.262;2022-11-12T07:28:26;18.80;50.90
27823;DHT22;29019;47.630;8.262;2022-11-12T07:32:27;18.80;50.90
27823;DHT22;29019;47.630;8.262;2022-11-12T07:36:27;18.80;50.70
27823;DHT22;29019;47.630;8.262;2022-11-12T07:40:28;18.90;50.60
27823;DHT22;29019;47.630;8.262;2022-11-12T07:44:28;18.90;50.80
27823;DHT22;29019;47.630;8.262;2022-11-12T07:48:29;18.90;50.60
27823;DHT22;29019;47.630;8.262;2022-11-12T07:52:31;18.90;50.60
27823;DHT22;29019;47.630;8.262;2022-11-12T07:56:31;19.00;50.60
27823;DHT22;29019;47.630;8.262;2022-11-12T08:00:31;19.00;51.10
27823;DHT22;29019;47.630;8.262;2022-11-12T08:04:32;19.00;51.00
27823;DHT22;29019;47.630;8.262;2022-11-12T08:08:32;19.10;51.30
27823;DHT22;29019;47.630;8.262;2022-11-12T08:12:33;19.20;51.00
27823;DHT22;29019;47.630;8.262;2022-11-12T08:16:33;19.20;50.90
27823;DHT22;29019;47.630;8.262;2022-11-12T08:20:34;19.30;50.90
27823;DHT22;29019;47.630;8.262;2022-11-12T08:24:34;19.30;50.70
27823;DHT22;29019;47.630;8.262;2022-11-12T08:28:35;19.30;50.90
27823;DHT22;29019;47.630;8.262;2022-11-12T08:32:36;19.40;50.70
27823;DHT22;29019;47.630;8.262;2022-11-12T08:36:36;19.40;50.50
27823;DHT22;29019;47.630;8.262;2022-11-12T08:40:38;19.50;50.60
27823;DHT22;29019;47.630;8.262;2022-11-12T08:44:39;19.50;50.80
27823;DHT22;29019;47.630;8.262;2022-11-12T08:48:39;19.50;50.00
27823;DHT22;29019;47.630;8.262;2022-11-12T08:52:40;19.40;50.30
27823;DHT22;29019;47.630;8.262;2022-11-12T08:56:40;19.20;50.30
27823;DHT22;29019;47.630;8.262;2022-11-12T09:00:41;19.20;50.30
27823;DHT22;29019;47.630;8.262;2022-11-12T09:04:42;19.30;50.10
27823;DHT22;29019;47.630;8.262;2022-11-12T09:08:43;19.40;50.00
27823;DHT22;29019;47.630;8.262;2022-11-12T09:12:43;19.50;49.80
27823;DHT22;29019;47.630;8.262;2022-11-12T09:16:44;19.60;49.80
27823;DHT22;29019;47.630;8.262;2022-11-12T09:20:44;19.60;49.80
27823;DHT22;29019;47.630;8.262;2022-11-12T09:24:45;19.70;49.90
27823;DHT22;29019;47.630;8.262;2022-11-12T09:28:45;19.80;50.10
27823;DHT22;29019;47.630;8.262;2022-11-12T09:32:46;19.80;49.90
27823;DHT22;29019;47.630;8.262;2022-11-12T09:36:46;19.90;50.00
27823;DHT22;29019;47.630;8.262;2022-11-12T09:45:12;19.90;49.50
27823;DHT22;29019;47.630;8.262;2022-11-12T09:57:26;19.90;49.40
27823;DHT22;29019;47.630;8.262;2022-11-12T10:01:41;19.90;49.40
27823;DHT22;29019;47.630;8.262;2022-11-12T10:05:47;20.00;49.40
27823;DHT22;29019;47.630;8.262;2022-11-12T10:10:02;19.90;49.40
27823;DHT22;29019;47.630;8.262;2022-11-12T10:18:11;20.00;50.20
27823;DHT22;29019;47.630;8.262;2022-11-12T10:26:32;20.20;50.10
27823;DHT22;29019;47.630;8.262;2022-11-12T10:30:33;20.20;50.10
27823;DHT22;29019;47.630;8.262;2022-11-12T10:34:34;20.20;49.80
27823;DHT22;29019;47.630;8.262;2022-11-12T10:38:35;20.30;49.80
27823;DHT22;29019;47.630;8.262;2022-11-12T10:42:37;20.30;49.90
27823;DHT22;29019;47.630;8.262;2022-11-12T10:47:09;20.30;49.70
27823;DHT22;29019;47.630;8.262;2022-11-12T10:51:18;20.40;49.70
27823;DHT22;29019;47.630;8.262;2022-11-12T10:55:26;20.40;49.70
27823;DHT22;29019;47.630;8.262;2022-11-12T10:59:27;20.50;49.70
27823;DHT22;29019;47.630;8.262;2022-11-12T11:03:32;20.50;50.00
27823;DHT22;29019;47.630;8.262;2022-11-12T11:07:33;20.50;49.70
27823;DHT22;29019;47.630;8.262;2022-11-12T11:11:34;20.50;49.50
27823;DHT22;29019;47.630;8.262;2022-11-12T11:15:35;20.30;48.70
27823;DHT22;29019;47.630;8.262;2022-11-12T11:19:40;20.20;49.30
27823;DHT22;29019;47.630;8.262;2022-11-12T11:23:57;20.30;49.20
27823;DHT22;29019;47.630;8.262;2022-11-12T11:40:39;20.60;49.30
27823;DHT22;29019;47.630;8.262;2022-11-12T11:49:06;20.60;49.00
27823;DHT22;29019;47.630;8.262;2022-11-12T11:57:23;20.70;49.00
27823;DHT22;29019;47.630;8.262;2022-11-12T12:01:26;20.50;46.30
27823;DHT22;29019;47.630;8.262;2022-11-12T12:18:39;20.20;48.10
27823;DHT22;29019;47.630;8.262;2022-11-12T12:22:44;20.30;47.20
27823;DHT22;29019;47.630;8.262;2022-11-12T12:26:47;20.40;47.60
27823;DHT22;29019;47.630;8.262;2022-11-12T12:30:50;20.40;47.70
27823;DHT22;29019;47.630;8.262;2022-11-12T12:34:55;20.50;47.70
27823;DHT22;29019;47.630;8.262;2022-11-12T12:47:08;20.50;47.60
27823;DHT22;29019;47.630;8.262;2022-11-12T12:51:11;20.60;47.70
27823;DHT22;29019;47.630;8.262;2022-11-12T12:59:31;20.60;47.70
27823;DHT22;29019;47.630;8.262;2022-11-12T13:07:44;20.60;47.80
27823;DHT22;29019;47.630;8.262;2022-11-12T13:11:47;20.60;47.70
27823;DHT22;29019;47.630;8.262;2022-11-12T13:16:06;20.60;47.80
27823;DHT22;29019;47.630;8.262;2022-11-12T13:24:08;20.60;47.70
27823;DHT22;29019;47.630;8.262;2022-11-12T13:28:11;20.70;47.80
27823;DHT22;29019;47.630;8.262;2022-11-12T13:36:25;20.70;47.80
27823;DHT22;29019;47.630;8.262;2022-11-12T13:40:37;20.70;47.80
27823;DHT22;29019;47.630;8.262;2022-11-12T13:44:38;20.70;47.70
27823;DHT22;29019;47.630;8.262;2022-11-12T13:48:42;20.70;47.70
27823;DHT22;29019;47.630;8.262;2022-11-12T13:52:43;20.70;47.80
27823;DHT22;29019;47.630;8.262;2022-11-12T13:56:44;20.70;47.70
27823;DHT22;29019;47.630;8.262;2022-11-12T14:00:49;20.80;47.80
27823;DHT22;29019;47.630;8.262;2022-11-12T14:04:50;20.80;47.80
27823;DHT22;29019;47.630;8.262;2022-11-12T14:08:54;20.80;47.80
27823;DHT22;29019;47.630;8.262;2022-11-12T14:21:03;20.80;47.80
27823;DHT22;29019;47.630;8.262;2022-11-12T14:25:09;20.80;47.80
27823;DHT22;29019;47.630;8.262;2022-11-12T14:29:17;20.80;48.30
27823;DHT22;29019;47.630;8.262;2022-11-12T14:33:19;20.80;47.80
27823;DHT22;29019;47.630;8.262;2022-11-12T14:37:34;20.80;47.80
27823;DHT22;29019;47.630;8.262;2022-11-12T14:41:36;20.90;47.80
27823;DHT22;29019;47.630;8.262;2022-11-12T14:45:38;20.80;47.70
27823;DHT22;29019;47.630;8.262;2022-11-12T14:49:46;20.90;47.80
27823;DHT22;29019;47.630;8.262;2022-11-12T14:54:01;20.80;47.70
27823;DHT22;29019;47.630;8.262;2022-11-12T14:58:03;20.90;47.70
27823;DHT22;29019;47.630;8.262;2022-11-12T15:14:38;20.80;47.70
27823;DHT22;29019;47.630;8.262;2022-11-12T15:18:38;20.90;47.70
27823;DHT22;29019;47.630;8.262;2022-11-12T15:22:39;20.90;47.70
27823;DHT22;29019;47.630;8.262;2022-11-12T15:26:41;20.90;47.70
27823;DHT22;29019;47.630;8.262;2022-11-12T15:30:41;20.90;47.70
27823;DHT22;29019;47.630;8.262;2022-11-12T15:34:58;20.90;47.70
27823;DHT22;29019;47.630;8.262;2022-11-12T15:38:59;20.90;47.60
27823;DHT22;29019;47.630;8.262;2022-11-12T15:42:59;20.90;47.60
27823;DHT22;29019;47.630;8.262;2022-11-12T15:47:00;21.00;47.70
27823;DHT22;29019;47.630;8.262;2022-11-12T15:51:01;20.90;47.60
27823;DHT22;29019;47.630;8.262;2022-11-12T15:55:02;20.90;47.60
27823;DHT22;29019;47.630;8.262;2022-11-12T15:59:02;21.00;47.70
27823;DHT22;29019;47.630;8.262;2022-11-12T16:03:13;21.00;47.70
27823;DHT22;29019;47.630;8.262;2022-11-12T16:07:14;21.00;47.60
27823;DHT22;29019;47.630;8.262;2022-11-12T16:11:15;21.00;47.70
27823;DHT22;29019;47.630;8.262;2022-11-12T16:15:34;21.00;47.60
27823;DHT22;29019;47.630;8.262;2022-11-12T16:19:34;21.00;47.60
27823;DHT22;29019;47.630;8.262;2022-11-12T16:23:35;21.00;47.60
27823;DHT22;29019;47.630;8.262;2022-11-12T16:27:36;21.00;47.60
27823;DHT22;29019;47.630;8.262;2022-11-12T16:31:39;21.00;47.60
27823;DHT22;29019;47.630;8.262;2022-11-12T16:35:39;21.00;47.60
27823;DHT22;29019;47.630;8.262;2022-11-12T16:39:40;21.10;47.60
27823;DHT22;29019;47.630;8.262;2022-11-12T16:43:40;21.00;47.50
27823;DHT22;29019;47.630;8.262;2022-11-12T16:47:51;21.10;47.60
27823;DHT22;29019;47.630;8.262;2022-11-12T16:51:53;21.10;47.60
27823;DHT22;29019;47.630;8.262;2022-11-12T16:55:53;21.10;47.60
27823;DHT22;29019;47.630;8.262;2022-11-12T16:59:55;21.10;48.10
27823;DHT22;29019;47.630;8.262;2022-11-12T17:03:56;21.10;47.50
27823;DHT22;29019;47.630;8.262;2022-11-12T17:07:56;21.10;47.60
27823;DHT22;29019;47.630;8.262;2022-11-12T17:11:57;21.10;47.60
27823;DHT22;29019;47.630;8.262;2022-11-12T17:15:57;21.10;47.50
27823;DHT22;29019;47.630;8.262;2022-11-12T17:19:58;21.10;47.50
27823;DHT22;29019;47.630;8.262;2022-11-12T17:23:58;21.10;47.50
27823;DHT22;29019;47.630;8.262;2022-11-12T17:27:59;21.10;47.50
27823;DHT22;29019;47.630;8.262;2022-11-12T17:31:59;21.10;47.60
27823;DHT22;29019;47.630;8.262;2022-11-12T17:36:03;21.10;47.50
27823;DHT22;29019;47.630;8.262;2022-11-12T17:40:04;21.20;48.10
27823;DHT22;29019;47.630;8.262;2022-11-12T17:44:05;21.10;47.50
27823;DHT22;29019;47.630;8.262;2022-11-12T17:48:05;21.10;47.50
27823;DHT22;29019;47.630;8.262;2022-11-12T17:52:06;21.20;47.50
27823;DHT22;29019;47.630;8.262;2022-11-12T17:56:07;21.20;47.50
27823;DHT22;29019;47.630;8.262;2022-11-12T18:00:08;21.20;47.50
27823;DHT22;29019;47.630;8.262;2022-11-12T18:04:08;21.20;47.50
27823;DHT22;29019;47.630;8.262;2022-11-12T18:08:09;21.20;47.50
27823;DHT22;29019;47.630;8.262;2022-11-12T18:12:10;21.20;47.50
27823;DHT22;29019;47.630;8.262;2022-11-12T18:16:14;21.20;47.40
27823;DHT22;29019;47.630;8.262;2022-11-12T18:20:14;21.20;47.40
27823;DHT22;29019;47.630;8.262;2022-11-12T18:24:15;21.20;47.40
27823;DHT22;29019;47.630;8.262;2022-11-12T18:28:16;21.20;47.40
27823;DHT22;29019;47.630;8.262;2022-11-12T18:32:16;21.20;47.30
27823;DHT22;29019;47.630;8.262;2022-11-12T18:36:24;21.20;47.40
27823;DHT22;29019;47.630;8.262;2022-11-12T18:40:25;21.20;47.30
27823;DHT22;29019;47.630;8.262;2022-11-12T18:44:25;21.20;47.30
27823;DHT22;29019;47.630;8.262;2022-11-12T18:48:26;21.20;47.40
27823;DHT22;29019;47.630;8.262;2022-11-12T18:52:27;21.30;47.30
27823;DHT22;29019;47.630;8.262;2022-11-12T18:56:27;21.30;47.30
27823;DHT22;29019;47.630;8.262;2022-11-12T19:00:28;21.30;47.30
27823;DHT22;29019;47.630;8.262;2022-11-12T19:04:28;21.20;47.20
27823;DHT22;29019;47.630;8.262;2022-11-12T19:08:29;21.30;47.30
27823;DHT22;29019;47.630;8.262;2022-11-12T19:12:29;21.30;47.30
27823;DHT22;29019;47.630;8.262;2022-11-12T19:16:30;21.30;47.30
27823;DHT22;29019;47.630;8.262;2022-11-12T19:20:30;21.20;47.20
27823;DHT22;29019;47.630;8.262;2022-11-12T19:24:31;21.20;47.20
27823;DHT22;29019;47.630;8.262;2022-11-12T19:28:33;21.30;47.30
27823;DHT22;29019;47.630;8.262;2022-11-12T19:32:33;21.30;47.30
27823;DHT22;29019;47.630;8.262;2022-11-12T19:36:34;21.30;47.20
27823;DHT22;29019;47.630;8.262;2022-11-12T19:40:34;21.30;47.80
27823;DHT22;29019;47.630;8.262;2022-11-12T19:44:35;21.30;47.30
27823;DHT22;29019;47.630;8.262;2022-11-12T19:48:36;21.30;47.70
27823;DHT22;29019;47.630;8.262;2022-11-12T19:52:36;21.30;47.20
27823;DHT22;29019;47.630;8.262;2022-11-12T19:56:37;21.30;47.20
27823;DHT22;29019;47.630;8.262;2022-11-12T20:00:37;21.30;47.10
27823;DHT22;29019;47.630;8.262;2022-11-12T20:04:38;21.30;47.20
27823;DHT22;29019;47.630;8.262;2022-11-12T20:08:38;21.30;47.10
27823;DHT22;29019;47.630;8.262;2022-11-12T20:12:38;21.40;47.20
27823;DHT22;29019;47.630;8.262;2022-11-12T20:16:39;21.30;47.10
27823;DHT22;29019;47.630;8.262;2022-11-12T20:20:40;21.30;47.10
27823;DHT22;29019;47.630;8.262;2022-11-12T20:24:40;21.40;47.10
27823;DHT22;29019;47.630;8.262;2022-11-12T20:28:41;21.40;47.20
27823;DHT22;29019;47.630;8.262;2022-11-12T20:32:41;21.40;47.10
27823;DHT22;29019;47.630;8.262;2022-11-12T20:36:42;21.40;47.10
27823;DHT22;29019;47.630;8.262;2022-11-12T20:40:42;21.40;47.10
27823;DHT22;29019;47.630;8.262;2022-11-12T20:44:43;21.40;47.10
27823;DHT22;29019;47.630;8.262;2022-11-12T20:48:43;21.40;47.10
27823;DHT22;29019;47.630;8.262;2022-11-12T20:52:43;21.40;47.10
27823;DHT22;29019;47.630;8.262;2022-11-12T20:56:44;21.40;46.90
27823;DHT22;29019;47.630;8.262;2022-11-12T21:00:44;21.40;47.00
27823;DHT22;29019;47.630;8.262;2022-11-12T21:04:45;21.40;46.90
27823;DHT22;29019;47.630;8.262;2022-11-12T21:08:48;21.40;47.10
27823;DHT22;29019;47.630;8.262;2022-11-12T21:12:48;21.40;47.10
27823;DHT22;29019;47.630;8.262;2022-11-12T21:16:49;21.40;47.10
27823;DHT22;29019;47.630;8.262;2022-11-12T21:20:49;21.40;47.10
27823;DHT22;29019;47.630;8.262;2022-11-12T21:24:51;21.40;47.10
27823;DHT22;29019;47.630;8.262;2022-11-12T21:28:53;21.40;47.10
27823;DHT22;29019;47.630;8.262;2022-11-12T21:32:54;21.30;47.00
27823;DHT22;29019;47.630;8.262;2022-11-12T21:36:54;21.30;46.90
27823;DHT22;29019;47.630;8.262;2022-11-12T21:41:02;21.30;46.80
27823;DHT22;29019;47.630;8.262;2022-11-12T21:45:02;21.20;46.70
27823;DHT22;29019;47.630;8.262;2022-11-12T21:49:03;21.20;46.60
27823;DHT22;29019;47.630;8.262;2022-11-12T21:53:03;21.20;46.70
27823;DHT22;29019;47.630;8.262;2022-11-12T21:57:04;21.10;46.60
27823;DHT22;29019;47.630;8.262;2022-11-12T22:01:08;21.10;46.60
27823;DHT22;29019;47.630;8.262;2022-11-12T22:05:09;21.10;46.70
27823;DHT22;29019;47.630;8.262;2022-11-12T22:09:10;21.00;46.60
27823;DHT22;29019;47.630;8.262;2022-11-12T22:13:10;21.00;46.80
27823;DHT22;29019;47.630;8.262;2022-11-12T22:17:10;21.00;46.80
27823;DHT22;29019;47.630;8.262;2022-11-12T22:21:12;20.90;46.80
27823;DHT22;29019;47.630;8.262;2022-11-12T22:25:12;20.90;46.80
27823;DHT22;29019;47.630;8.262;2022-11-12T22:29:13;20.90;46.90
27823;DHT22;29019;47.630;8.262;2022-11-12T22:33:14;20.90;46.90
27823;DHT22;29019;47.630;8.262;2022-11-12T22:37:14;20.80;46.90
27823;DHT22;29019;47.630;8.262;2022-11-12T22:41:16;20.80;47.00
27823;DHT22;29019;47.630;8.262;2022-11-12T22:45:16;20.80;47.00
27823;DHT22;29019;47.630;8.262;2022-11-12T22:49:17;20.70;47.00
27823;DHT22;29019;47.630;8.262;2022-11-12T22:53:17;20.70;47.10
27823;DHT22;29019;47.630;8.262;2022-11-12T22:57:18;20.70;47.10
27823;DHT22;29019;47.630;8.262;2022-11-12T23:01:19;20.70;47.70
27823;DHT22;29019;47.630;8.262;2022-11-12T23:05:20;20.60;47.20
27823;DHT22;29019;47.630;8.262;2022-11-12T23:09:21;20.60;47.20
27823;DHT22;29019;47.630;8.262;2022-11-12T23:13:22;20.60;47.30
27823;DHT22;29019;47.630;8.262;2022-11-12T23:17:24;20.50;47.30
27823;DHT22;29019;47.630;8.262;2022-11-12T23:21:25;20.50;47.30
27823;DHT22;29019;47.630;8.262;2022-11-12T23:25:26;20.50;47.40
27823;DHT22;29019;47.630;8.262;2022-11-12T23:29:26;20.50;47.40
27823;DHT22;29019;47.630;8.262;2022-11-12T23:33:27;20.40;47.50
27823;DHT22;29019;47.630;8.262;2022-11-12T23:37:27;20.40;47.40
27823;DHT22;29019;47.630;8.262;2022-11-12T23:41:27;20.40;47.40
27823;DHT22;29019;47.630;8.262;2022-11-12T23:45:28;20.40;47.40
27823;DHT22;29019;47.630;8.262;2022-11-12T23:49:28;20.40;47.50
27823;DHT22;29019;47.630;8.262;2022-11-12T23:53:29;20.30;47.50
27823;DHT22;29019;47.630;8.262;2022-11-12T23:57:31;20.30;47.50
